• Join FlightAware (Why Join?)
  • Login
  • US Flag 
04:32PM EDT


 

Airport Tracker/Info


-or-


 

Live Flight TrackerFlight Track Log ✈ UPS1122 ✈ 15-Jun-2013 ✈ KSDF - KBDL

Flight Track Log - Related Links

Times and Time Zones

All times are in EDT time to prevent confusion due to time zone crossing. See the UPS1122 flight status page for this flight to view local times or setup timezone preferences in your user account.

Time Position Orientation Groundspeed Altitude Reporting Facility
EDT Latitude Longitude Course Direction KTS MPH feet Rate Location/Type
04:51AM 38.1680 -85.7400 345° North 18 21  Level FlightAware
04:51AM 38.1690 -85.7400 360° North 18 21 180 Level FlightAware
04:52AM 38.1720 -85.7410 345° North 19 22 180 Level FlightAware
04:52AM 38.1730 -85.7420 322° Northwest 20 23 240 Level FlightAware
04:53AM 38.1770 -85.7430 349° North 22 25 240 Level FlightAware
04:53AM 38.1800 -85.7430 360° North 15 17 300 Level FlightAware
04:54AM 38.1800 -85.7410 90° East 18 21 360 Level FlightAware
04:55AM 38.1850 -85.7340 48° Northeast 17 20 420 Level FlightAware
04:55AM 38.1870 -85.7330 21° North 17 20 840 Level FlightAware
04:56AM 38.1830 -85.7300 149° Southeast 88 101 1,080 Level FlightAware
04:57AM 38.1600 -85.7220 165° South 166 191 1,300 1,920 Climbing FlightAware
04:57AM 38.1380 -85.7160 168° South 203 234 2,000 1,860 Climbing FlightAware
04:57AM 38.1100 -85.7070 166° South 226 260 3,000 2,100 Climbing FlightAware
04:58AM 38.0920 -85.6990 161° South 238 274 3,600 2,040 Climbing FlightAware
04:58AM 38.0830 -85.6900 142° Southeast 243 280 4,000 2,220 Climbing FlightAware
04:58AM 38.0760 -85.6730 118° Southeast 253 291 4,500 2,340 Climbing FlightAware
04:59AM 38.0820 -85.6330 79° East 262 302 5,600 2,340 Climbing FlightAware
04:59AM 38.0950 -85.6170 44° Northeast 268 308 6,200 2,400 Climbing FlightAware
04:59AM 38.1100 -85.6020 38° Northeast 272 313 6,800 2,400 Climbing FlightAware
05:00AM 38.1320 -85.5790 39° Northeast 272 313 7,800 1,260 Climbing FlightAware
05:01AM 38.1490 -85.5620 38° Northeast 272 313 8,600 1,620 Climbing FlightAware
05:01AM 38.2160 -85.4860 42° Northeast 309 356 10,600 2,220 Climbing FlightAware
05:02AM 38.2780 -85.3970 48° Northeast 365 420 11,700 1,680 Climbing FlightAware
05:03AM 38.3290 -85.3230 49° Northeast 396 456 12,900 1,860 Climbing FlightAware
05:03AM 38.3830 -85.2440 49° Northeast 410 472 14,400 2,040 Climbing FlightAware
05:04AM 38.4310 -85.1750 48° Northeast 417 480 15,800 1,980 Climbing FlightAware
05:05AM 38.4770 -85.1080 49° Northeast 425 489 17,000 1,920 Climbing FlightAware
05:05AM 38.5360 -85.0210 49° Northeast 435 501 18,500 1,500 Climbing FlightAware
05:07AM 38.6370 -84.8740 49° Northeast 447 514 20,000 1,440 Climbing FlightAware
05:08AM 38.7150 -84.7570 49° Northeast 455 524 21,700 1,080 Climbing FlightAware
05:08AM 38.7580 -84.6950 48° Northeast 455 524 21,700  Level FlightAware
05:09AM 38.8150 -84.6100 49° Northeast 455 524 21,700  Level FlightAware
05:10AM 38.8600 -84.5440 49° Northeast 455 524 21,700  Level FlightAware
05:10AM 38.9150 -84.4630 49° Northeast 455 524 21,700  Level FlightAware
05:11AM 38.9620 -84.3930 49° Northeast 455 524 21,700 3,900 Level FlightAware
05:12AM 39.1000 -84.1810 50° Northeast 487 560 27,900 4,200 Climbing FlightAware
05:13AM 39.1430 -84.1170 49° Northeast 487 560 28,000 1,200 Climbing FlightAware
05:13AM 39.2220 -83.9950 50° Northeast 481 554 29,600 1,560 Climbing FlightAware
05:14AM 39.2830 -83.9040 49° Northeast 483 556 30,400 1,080 Climbing FlightAware
05:15AM 39.3650 -83.7780 50° Northeast 482 555 31,400 1,080 Climbing FlightAware
05:16AM 39.4270 -83.6830 50° Northeast 479 551 32,200 960 Climbing FlightAware
05:16AM 39.4850 -83.5940 50° Northeast 477 549 32,800 540 Climbing FlightAware
05:17AM 39.5480 -83.4970 50° Northeast 476 548 33,000 120 Climbing FlightAware
05:18AM 39.5970 -83.4210 50° Northeast 476 548 33,000  Level FlightAware
05:19AM 39.6680 -83.3120 50° Northeast 479 551 33,000  Level FlightAware
05:19AM 39.7280 -83.2140 51° Northeast 480 552 33,000  Level FlightAware
05:20AM 39.7810 -83.1340 49° Northeast 476 548 33,000  Level FlightAware
05:21AM 39.8400 -83.0420 50° Northeast 473 544 33,000  Level FlightAware
05:21AM 39.9000 -82.9420 52° Northeast 476 548 33,000  Level FlightAware
05:22AM 39.9460 -82.8380 60° Northeast 483 556 33,000  Level FlightAware
05:23AM 39.9850 -82.7330 64° Northeast 482 555 33,000  Level FlightAware
05:23AM 40.0310 -82.6120 64° Northeast 480 552 33,000  Level FlightAware
05:24AM 40.0730 -82.5010 64° Northeast 477 549 33,000  Level FlightAware
05:25AM 40.1050 -82.4150 64° Northeast 474 545 33,000  Level FlightAware
05:26AM 40.1550 -82.2820 64° Northeast 473 544 33,000  Level FlightAware
05:26AM 40.1940 -82.1770 64° Northeast 471 542 33,000  Level FlightAware
05:27AM 40.2350 -82.0640 65° Northeast 471 542 33,000  Level FlightAware
05:28AM 40.2740 -81.9610 64° Northeast 470 541 33,000  Level FlightAware
05:28AM 40.3040 -81.8780 65° Northeast 469 540 33,000  Level FlightAware
05:29AM 40.3420 -81.7750 64° Northeast 469 540 33,000  Level FlightAware
05:30AM 40.3810 -81.6670 65° Northeast 469 540 33,000  Level FlightAware
05:30AM 40.4150 -81.5730 65° Northeast 468 539 33,000  Level FlightAware
05:31AM 40.4620 -81.4430 65° Northeast 469 540 33,000  Level FlightAware
05:32AM 40.5000 -81.3380 65° Northeast 471 542 33,000  Level FlightAware
05:32AM 40.5340 -81.2440 65° Northeast 471 542 33,000  Level FlightAware
05:33AM 40.5780 -81.1180 65° Northeast 472 543 33,000  Level FlightAware
05:34AM 40.6160 -81.0140 64° Northeast 472 543 33,000  Level FlightAware
05:34AM 40.6550 -80.9030 65° Northeast 473 544 33,000  Level FlightAware
05:35AM 40.6810 -80.8300 65° Northeast 474 545 33,000  Level FlightAware
05:36AM 40.7210 -80.7140 66° East 475 547 33,000  Level FlightAware
05:36AM 40.7630 -80.5970 65° Northeast 476 548 33,000  Level FlightAware
05:37AM 40.7990 -80.4960 65° Northeast 476 548 33,000  Level FlightAware
05:38AM 40.8380 -80.3830 65° Northeast 476 548 33,000  Level FlightAware
05:38AM 40.8770 -80.2710 65° Northeast 477 549 33,000  Level FlightAware
05:39AM 40.9140 -80.1650 65° Northeast 479 551 33,000  Level FlightAware
05:40AM 40.9550 -80.0450 66° East 480 552 33,000  Level FlightAware
05:40AM 40.9850 -79.9570 66° East 480 552 33,000  Level FlightAware
05:41AM 41.0310 -79.8240 65° Northeast 479 551 33,000  Level FlightAware
05:42AM 41.0690 -79.7130 66° East 479 551 33,000  Level FlightAware
05:43AM 41.1010 -79.6180 66° East 481 554 33,000  Level FlightAware
05:43AM 41.1420 -79.4950 66° East 483 556 33,000  Level FlightAware
05:44AM 41.1770 -79.3920 66° East 485 558 33,000  Level FlightAware
05:45AM 41.2160 -79.2740 66° East 486 559 33,000  Level FlightAware
05:45AM 41.2530 -79.1630 66° East 487 560 33,000  Level FlightAware
05:46AM 41.2930 -79.0420 66° East 488 562 33,000  Level FlightAware
05:47AM 41.3350 -78.9160 66° East 484 557 33,000  Level FlightAware
05:47AM 41.3710 -78.8060 66° East 484 557 33,000  Level FlightAware
05:48AM 41.4030 -78.7080 66° East 484 557 33,000  Level FlightAware
05:49AM 41.4460 -78.5790 66° East 482 555 33,000  Level FlightAware
05:50AM 41.4810 -78.4700 67° East 482 555 33,000  Level FlightAware
05:50AM 41.5320 -78.3120 67° East 483 556 33,000  Level FlightAware
05:51AM 41.5720 -78.1860 67° East 482 555 33,000  Level FlightAware
05:52AM 41.5990 -78.1040 66° East 483 556 33,000  Level FlightAware
05:52AM 41.6380 -77.9810 67° East 484 557 33,000  Level FlightAware
05:53AM 41.6740 -77.8680 67° East 485 558 33,000  Level FlightAware
05:54AM 41.7090 -77.7570 67° East 486 559 33,000  Level FlightAware
05:55AM 41.7490 -77.6300 67° East 485 558 33,000  Level FlightAware
05:55AM 41.7940 -77.4840 67° East 486 559 33,000  Level FlightAware
05:56AM 41.8280 -77.3760 67° East 485 558 33,000  Level FlightAware
05:57AM 41.8660 -77.2510 68° East 485 558 33,000  Level FlightAware
05:57AM 41.9010 -77.1400 67° East 484 557 33,000  Level FlightAware
05:58AM 41.9390 -77.0160 68° East 484 557 33,000  Level FlightAware
05:59AM 41.9730 -76.9050 68° East 482 555 33,000  Level FlightAware
05:59AM 42.0090 -76.7880 67° East 482 555 33,000  Level FlightAware
06:00AM 42.0420 -76.6800 68° East 483 556 33,000  Level FlightAware
06:01AM 42.0830 -76.5440 68° East 483 556 33,000  Level FlightAware
06:02AM 42.1170 -76.4330 68° East 484 557 33,000  Level FlightAware
06:02AM 42.1520 -76.3140 68° East 485 558 33,000  Level FlightAware
06:03AM 42.1890 -76.1920 68° East 485 558 33,000  Level FlightAware
06:04AM 42.2230 -76.0780 68° East 485 558 33,000  Level FlightAware
06:04AM 42.2580 -75.9580 68° East 486 559 33,000 -240 Level FlightAware
06:05AM 42.2920 -75.8380 69° East 497 572 32,700 -1,020 Descending FlightAware
06:06AM 42.3130 -75.7040 78° East 495 570 31,600 -1,500 Descending FlightAware
06:06AM 42.3320 -75.5760 79° East 483 556 30,600 -1,500 Descending FlightAware
06:07AM 42.3510 -75.4540 78° East 480 552 29,500 -1,560 Descending FlightAware
06:08AM 42.3700 -75.3370 78° East 471 542 28,500 -1,500 Descending FlightAware
06:09AM 42.3900 -75.2130 78° East 460 529 27,400 -1,560 Descending FlightAware
06:09AM 42.4080 -75.1050 77° East 462 532 26,400 -1,680 Descending FlightAware
06:10AM 42.4300 -74.9680 78° East 477 549 25,100 -1,680 Descending FlightAware
06:11AM 42.4560 -74.8020 78° East 464 534 23,300 -1,080 Descending FlightAware
06:12AM 42.4780 -74.6210 81° East 471 542 23,000 -240 Descending FlightAware
06:13AM 42.4820 -74.5130 87° East 472 543 23,000  Level FlightAware
06:14AM 42.4870 -74.3920 87° East 472 543 23,000  Level FlightAware
06:14AM 42.4910 -74.3020 87° East 472 543 23,000  Level FlightAware
06:15AM 42.4950 -74.1960 87° East 472 543 23,000  Level FlightAware
06:16AM 42.4990 -74.0760 87° East 472 543 23,000 -3,240 Level FlightAware
06:16AM 42.4872 -73.8675 87° East 456 525 18,000 -3,600 Descending Boston Center
06:17AM 42.4914 -73.6986 88° East 451 519 16,700 -1,620 Descending Boston Center
06:18AM 42.4906 -73.5889 91° East 447 514 15,300 -1,800 Descending Boston Center
06:18AM 42.4931 -73.5353 86° East 445 512 14,900 -2,040 Descending Boston Center
06:19AM 42.4506 -73.3911 112° Southeast 408 470 12,700 -1,980 Descending Boston Center
06:20AM 42.3783 -73.2917 134° Southeast 411 473 11,100 -900 Descending Boston Center
06:21AM 42.2831 -73.2147 149° Southeast 392 451 11,000 -300 Descending Boston Center
06:22AM 42.1939 -73.1575 155° Southeast 335 386 10,600 -840 Descending Boston Center
06:23AM 42.1172 -73.1061 154° Southeast 310 357 9,400 -1,440 Descending Boston Center
06:24AM 42.0444 -73.0578 154° Southeast 299 344 7,700 -1,740 Descending Boston Center
06:25AM 41.9717 -73.0125 155° Southeast 291 335 5,900 -1,740 Descending Boston Center
06:26AM 41.9053 -72.9478 144° Southeast 294 338 4,200 -1,320 Descending Boston Center
06:27AM 41.8578 -72.8778 132° Southeast 231 266 3,300 -960 Descending Boston Center
06:28AM 41.8517 -72.8025 96° East 208 239 2,300 -900 Descending Boston Center
06:29AM 41.8853 -72.7553 46° Northeast 160 184 1,500 -840 Descending Boston Center
06:30AM 41.9144 -72.7247 38° Northeast 134 154 700 -600 Descending Boston Center
06:31AM 41.9292 -72.7053 44° Northeast 131 151 400 5,220 Descending Boston Center
06:32AM 41.9522 -72.6550 58° Northeast 131 151 11,000 10,560 Climbing Boston Center
06:34AM 41.9333 -72.6833 236° Southwest  Level FlightAware Approximate
06:41AM 41.9392 -72.6834 236° Southwest  Level Estimated
06:42AM 41.9333 -72.6833 236° Southwest  Level FlightAware Approximate
06:43AM 41.9392 -72.6834 236° Southwest  Level Estimated
06:44AM 41.9333 -72.6833 236° Southwest  Level FlightAware Approximate